Dati Storici

Data ora Umidita' aria (%) Temperatura aria (°C) Rad globale (W/m²) Gonioanemometro (°) Tacoanemometro (m/s) Pioggia (mm)
03-07-2020 02:50 97.8 % 20.611 20.54 1.185 0 0
03-07-2020 02:40 97.8 % 20.625 -2.711 1.063 0 0
03-07-2020 02:30 97.8 % 20.716 -6.925 2.545 0 0
03-07-2020 02:20 97.8 % 20.872 -67.963 -0.011 0 0
03-07-2020 02:10 97.8 % 20.655 -11.133 1.223 0 0
03-07-2020 02:00 97.8 % 20.813 -54.108 0.994 0 0
03-07-2020 01:50 97.8 % 20.904 -9.711 1.049 0 0
03-07-2020 01:40 97.8 % 21.174 41.791 4.146 0 0
03-07-2020 01:30 97.7 % 21.435 -4.225 0.717 0 0
03-07-2020 01:20 97.7 % 21.691 -19.119 1.664 0 0
03-07-2020 01:10 97.6 % 22.08 -42.504 0.489 0 0
03-07-2020 01:00 96.2 % 22.436 -61.782 1.164 0 0
03-07-2020 00:50 89.9 % 22.838 15.074 0.576 0 0
03-07-2020 00:40 85 % 23.513 0.456 0.89 0 0
03-07-2020 00:30 82.9 % 23.841 3.912 0.219 0 0
03-07-2020 00:20 79.7 % 24.199 -33.154 -0.023 0 0
03-07-2020 00:10 78.9 % 24.106 -15.932 -0.025 0 0
03-07-2020 00:00 82.7 % 23.665 -5.65 1.43 0 0
02-07-2020 23:50 85.9 % 23.336 -17.834 -0.022 0 0
02-07-2020 23:40 87.6 % 23.27 -70.325 -0.022 0 0

I dati sono presentati in modo automatico a scopo informativo. In seguito a verifica i dati possono subire modifiche o essere invalidati e non riportati negli archivi definitivi.